createdAt,value
2019-05-17T00:01:26.894Z,20.57
2019-05-17T00:03:58.117Z,18.37
2019-05-17T00:06:28.832Z,21.13
2019-05-17T00:08:59.970Z,19.33
2019-05-17T00:11:32.429Z,17.40
2019-05-17T00:14:06.334Z,22.13
2019-05-17T00:16:37.614Z,26.77
2019-05-17T00:19:08.309Z,25.63
2019-05-17T00:21:39.398Z,21.57
2019-05-17T00:24:10.398Z,22.57
2019-05-17T00:26:41.024Z,19.73
2019-05-17T00:29:12.108Z,20.73
2019-05-17T00:31:46.140Z,24.13
2019-05-17T00:34:16.972Z,23.20
2019-05-17T00:36:48.411Z,19.93
2019-05-17T00:39:19.017Z,24.97
2019-05-17T00:41:51.126Z,23.73
2019-05-17T00:44:22.104Z,19.87
2019-05-17T00:46:52.731Z,24.60
2019-05-17T00:49:23.568Z,21.60
2019-05-17T00:51:56.742Z,23.83
2019-05-17T00:54:28.203Z,24.57
2019-05-17T00:56:59.789Z,21.03
2019-05-17T00:59:30.448Z,23.47
2019-05-17T01:02:03.686Z,25.33
2019-05-17T01:04:36.907Z,22.83
2019-05-17T01:07:07.191Z,24.93
2019-05-17T01:09:37.815Z,27.73
2019-05-17T01:12:08.903Z,28.93
2019-05-17T01:14:39.513Z,32.10
2019-05-17T01:17:10.537Z,23.83
2019-05-17T01:19:43.002Z,23.43
2019-05-17T01:22:13.646Z,22.57
2019-05-17T01:24:46.366Z,28.93
2019-05-17T01:27:20.102Z,25.23
2019-05-17T01:29:51.055Z,22.60
2019-05-17T01:32:22.245Z,22.53
2019-05-17T01:34:52.938Z,23.97
2019-05-17T01:37:23.546Z,26.60
2019-05-17T01:39:54.358Z,24.33
2019-05-17T01:42:26.487Z,25.40
2019-05-17T01:44:59.553Z,25.47
2019-05-17T01:47:30.149Z,26.07
2019-05-17T01:50:01.138Z,24.00
2019-05-17T01:52:31.870Z,25.60
2019-05-17T01:55:02.468Z,30.43
2019-05-17T01:57:36.753Z,26.33
2019-05-17T02:00:09.086Z,26.17
2019-05-17T02:02:44.372Z,25.70
2019-05-17T02:05:17.459Z,28.37
2019-05-17T02:07:48.213Z,25.73
2019-05-17T02:10:20.362Z,28.27
2019-05-17T02:12:51.152Z,28.53
2019-05-17T02:15:22.341Z,26.23
2019-05-17T02:17:53.793Z,23.57
2019-05-17T02:20:24.777Z,23.17
2019-05-17T02:22:56.584Z,24.87
2019-05-17T02:25:27.332Z,26.43
2019-05-17T02:27:58.417Z,25.53
2019-05-17T02:30:29.023Z,26.63
2019-05-17T02:33:03.455Z,26.00
2019-05-17T02:35:33.670Z,27.17
2019-05-17T02:38:04.839Z,27.33
2019-05-17T02:40:35.465Z,25.57
2019-05-17T02:43:06.568Z,28.63
2019-05-17T02:45:37.184Z,26.43
2019-05-17T02:48:07.788Z,27.53
2019-05-17T02:50:38.456Z,25.47
2019-05-17T02:53:13.238Z,23.63
2019-05-17T02:55:43.679Z,33.97
2019-05-17T02:58:14.820Z,31.57
2019-05-17T03:00:45.429Z,27.20
2019-05-17T03:03:16.062Z,25.00
2019-05-17T03:05:46.730Z,24.87
2019-05-17T03:08:17.799Z,22.33
2019-05-17T03:10:48.832Z,20.13
2019-05-17T03:13:23.167Z,26.43
2019-05-17T03:15:52.799Z,26.07
2019-05-17T03:18:23.613Z,21.80
2019-05-17T03:20:54.259Z,23.20
2019-05-17T03:23:24.860Z,21.43
2019-05-17T03:25:55.586Z,19.93
2019-05-17T03:28:26.806Z,21.90
2019-05-17T03:30:58.855Z,23.10
2019-05-17T03:33:35.868Z,20.33
2019-05-17T03:36:06.251Z,23.90
2019-05-17T03:38:35.841Z,24.60
2019-05-17T03:41:17.731Z,21.20
2019-05-17T03:43:41.225Z,24.57
2019-05-17T03:46:13.835Z,20.97
2019-05-17T03:48:44.718Z,21.87
2019-05-17T03:51:15.377Z,18.77
2019-05-17T03:53:48.117Z,20.03
2019-05-17T03:56:18.698Z,20.60
2019-05-17T03:58:52.825Z,20.97
2019-05-17T04:01:23.175Z,19.97
2019-05-17T04:03:54.155Z,23.03
2019-05-17T04:06:24.703Z,22.13
2019-05-17T04:21:55.636Z,23.53
2019-05-17T04:24:26.724Z,26.03
2019-05-17T04:26:58.161Z,21.57
2019-05-17T04:29:33.193Z,18.30
2019-05-17T04:32:04.334Z,22.03
2019-05-17T04:34:35.245Z,23.67
2019-05-17T04:37:06.002Z,20.97
2019-05-17T04:39:36.688Z,20.40
2019-05-17T04:42:07.406Z,20.80
2019-05-17T04:44:38.053Z,21.07
2019-05-17T04:47:08.767Z,21.10
2019-05-17T04:49:43.730Z,21.33
2019-05-17T04:52:14.240Z,18.97
2019-05-17T04:54:44.861Z,20.77
2019-05-17T04:57:15.626Z,23.77
2019-05-17T04:59:46.330Z,19.57
2019-05-17T05:02:19.733Z,18.03
2019-05-17T05:04:53.178Z,17.30
2019-05-17T05:07:23.000Z,18.33
2019-05-17T05:09:53.685Z,18.50
2019-05-17T05:12:24.855Z,20.93
2019-05-17T05:14:55.443Z,27.57
2019-05-17T05:17:26.110Z,19.93
2019-05-17T05:19:57.138Z,18.43
2019-05-17T05:22:27.858Z,19.00
2019-05-17T05:24:58.492Z,15.70
2019-05-17T05:27:31.520Z,18.27
2019-05-17T05:30:03.072Z,18.07
2019-05-17T05:32:33.964Z,22.27
2019-05-17T05:35:07.344Z,22.50
2019-05-17T05:37:38.005Z,19.67
2019-05-17T05:40:08.843Z,18.23
2019-05-17T05:42:42.273Z,22.03
2019-05-17T05:45:12.855Z,18.63
2019-05-17T05:47:47.459Z,20.97
2019-05-17T05:50:18.337Z,19.27
2019-05-17T05:52:49.071Z,20.53
2019-05-17T05:55:23.144Z,18.53
2019-05-17T05:57:53.161Z,22.53
2019-05-17T06:00:23.797Z,19.67
2019-05-17T06:02:54.457Z,16.77
2019-05-17T06:05:25.100Z,17.53
2019-05-17T06:07:57.215Z,16.03
2019-05-17T06:10:27.876Z,19.00
2019-05-17T06:12:59.124Z,17.50
2019-05-17T06:15:31.932Z,17.97
2019-05-17T06:18:02.912Z,22.20
2019-05-17T06:20:34.106Z,24.57
2019-05-17T06:23:04.825Z,18.37
2019-05-17T06:52:22.599Z,19.53
2019-05-17T06:54:53.883Z,26.03
2019-05-17T06:57:25.496Z,21.70
2019-05-17T06:59:56.299Z,16.87
2019-05-17T07:02:27.013Z,13.27
2019-05-17T07:05:01.332Z,19.80
2019-05-17T07:07:31.645Z,20.80
2019-05-17T07:10:02.317Z,18.50
2019-05-17T07:12:32.975Z,14.33
2019-05-17T07:15:03.586Z,16.40
2019-05-17T07:17:34.236Z,16.07
2019-05-17T07:20:05.032Z,18.63
2019-05-17T07:22:35.731Z,24.97
2019-05-17T07:25:12.160Z,23.00
2019-05-17T07:27:45.881Z,23.93
2019-05-17T07:30:16.162Z,23.43
2019-05-17T07:32:46.745Z,22.27
2019-05-17T07:35:19.604Z,19.20
2019-05-17T07:37:50.250Z,18.30
2019-05-17T07:40:20.974Z,17.63
2019-05-17T07:42:51.672Z,20.90
2019-05-17T07:45:22.608Z,20.03
2019-05-17T07:47:53.278Z,16.90
2019-05-17T07:50:23.983Z,23.37
2019-05-17T07:52:54.611Z,16.20
2019-05-17T07:55:25.256Z,21.03
2019-05-17T07:57:55.927Z,15.33
2019-05-17T08:00:26.600Z,16.00
2019-05-17T08:03:02.055Z,16.17
2019-05-17T08:05:35.517Z,17.07
2019-05-17T08:08:06.264Z,15.37
2019-05-17T08:10:37.067Z,17.07
2019-05-17T08:13:21.621Z,15.27
2019-05-17T08:15:40.118Z,20.43
2019-05-17T08:18:29.725Z,13.20
2019-05-17T08:21:02.552Z,19.80
2019-05-17T08:23:33.194Z,12.53
2019-05-17T08:26:03.777Z,17.80
2019-05-17T08:28:34.565Z,19.33
2019-05-17T08:31:05.186Z,16.10
2019-05-17T08:33:35.801Z,18.43
2019-05-17T08:36:06.558Z,14.77
2019-05-17T08:38:39.214Z,15.93
2019-05-17T08:41:10.546Z,19.40
2019-05-17T08:43:46.630Z,25.60
2019-05-17T08:46:13.868Z,14.13
2019-05-17T08:48:44.716Z,15.53
2019-05-17T08:51:15.411Z,17.90
2019-05-17T08:53:46.200Z,11.60
2019-05-17T08:56:16.928Z,14.30
2019-05-17T08:58:49.694Z,14.63
2019-05-17T09:01:19.897Z,11.00
2019-05-17T09:03:50.740Z,14.07
2019-05-17T09:06:22.158Z,15.33
2019-05-17T09:08:52.860Z,21.50
2019-05-17T09:11:23.430Z,19.03
2019-05-17T09:13:58.528Z,17.93
2019-05-17T09:16:30.559Z,17.60
2019-05-17T09:23:19.660Z,18.05
2019-05-17T09:25:52.221Z,14.15
2019-05-17T09:28:22.842Z,14.50
2019-05-17T09:30:53.589Z,11.43
2019-05-17T09:33:24.306Z,13.70
2019-05-17T09:35:56.330Z,13.83
2019-05-17T09:38:26.930Z,15.57
2019-05-17T09:40:59.970Z,17.90
2019-05-17T09:43:30.857Z,12.17
2019-05-17T09:46:01.944Z,13.87
2019-05-17T09:48:35.375Z,17.57
2019-05-17T09:51:06.007Z,19.03
2019-05-17T09:53:40.112Z,12.73
2019-05-17T09:56:10.538Z,11.83
2019-05-17T09:58:41.217Z,14.50
2019-05-17T10:01:11.877Z,17.43
2019-05-17T10:03:42.645Z,15.93
2019-05-17T10:06:13.443Z,12.90
2019-05-17T10:08:44.187Z,18.30
2019-05-17T10:11:15.473Z,10.68
2019-05-17T10:40:31.245Z,15.53
2019-05-17T10:43:02.466Z,15.95
2019-05-17T10:45:33.299Z,18.80
2019-05-17T10:48:03.941Z,12.57
2019-05-17T10:50:34.672Z,17.97
2019-05-17T10:53:05.300Z,15.83
2019-05-17T10:55:35.988Z,12.93
2019-05-17T10:58:09.684Z,14.25
2019-05-17T11:00:41.312Z,17.37
2019-05-17T11:03:12.327Z,14.40
2019-05-17T11:05:45.008Z,14.18
2019-05-17T11:08:16.149Z,15.57
2019-05-17T11:10:50.545Z,12.68
2019-05-17T11:13:21.263Z,15.67
2019-05-17T11:15:52.056Z,12.00
2019-05-17T11:18:23.252Z,13.48
2019-05-17T11:20:53.819Z,10.30
2019-05-17T11:23:25.100Z,11.57
2019-05-17T11:25:55.820Z,12.23
2019-05-17T11:28:27.114Z,12.58
2019-05-17T11:30:57.729Z,10.03
2019-05-17T11:33:29.341Z,11.57
2019-05-17T11:36:01.512Z,11.03
2019-05-17T11:38:32.230Z,18.70
2019-05-17T11:41:19.996Z,10.88
2019-05-17T11:43:35.783Z,9.33
2019-05-17T11:46:06.443Z,15.23
2019-05-17T11:48:37.203Z,12.13
2019-05-17T11:51:08.379Z,9.65
2019-05-17T11:53:39.560Z,12.33
2019-05-17T11:56:10.585Z,12.00
2019-05-17T11:58:41.322Z,11.17
2019-05-17T12:01:13.023Z,15.20
2019-05-17T12:03:44.211Z,9.75
2019-05-17T12:06:18.484Z,12.70
2019-05-17T12:08:49.209Z,7.83
2019-05-17T12:11:20.549Z,14.70
2019-05-17T12:13:53.418Z,8.60
2019-05-17T12:16:25.118Z,8.35
2019-05-17T12:18:57.625Z,8.17
2019-05-17T12:21:28.948Z,11.18
2019-05-17T12:23:59.719Z,12.63
2019-05-17T12:26:31.835Z,14.53
2019-05-17T12:29:03.068Z,7.45
2019-05-17T12:31:34.236Z,13.62
2019-05-17T12:34:05.581Z,10.53
2019-05-17T12:36:36.382Z,7.25
2019-05-17T12:39:07.915Z,14.75
2019-05-17T12:41:38.582Z,10.08
2019-05-17T12:44:09.772Z,13.35
2019-05-17T12:46:40.729Z,11.93
2019-05-17T12:49:11.577Z,12.82
2019-05-17T12:51:42.920Z,15.00
2019-05-17T12:54:14.162Z,8.88
2019-05-17T12:56:44.758Z,9.78
2019-05-17T12:59:15.464Z,13.35
2019-05-17T13:01:46.076Z,15.95
2019-05-17T13:04:16.674Z,8.58
2019-05-17T13:06:49.291Z,9.80
2019-05-17T13:09:19.942Z,13.08
2019-05-17T13:11:51.149Z,7.33
2019-05-17T13:14:21.927Z,18.05
2019-05-17T13:16:53.277Z,10.18
2019-05-17T13:19:25.425Z,13.18
2019-05-17T13:21:57.083Z,16.30
2019-05-17T13:24:28.498Z,15.35
2019-05-17T13:27:00.256Z,10.98
2019-05-17T13:29:34.609Z,12.17
2019-05-17T13:32:05.375Z,14.75
2019-05-17T13:34:36.581Z,13.10
2019-05-17T13:37:07.902Z,13.05
2019-05-17T13:39:38.679Z,8.17
2019-05-17T13:42:09.875Z,13.18
2019-05-17T13:44:41.244Z,17.65
2019-05-17T13:47:12.242Z,10.33
2019-05-17T13:49:43.461Z,13.13
2019-05-17T13:52:17.776Z,10.30
2019-05-17T13:54:50.582Z,12.75
2019-05-17T13:57:21.225Z,17.67
2019-05-17T13:59:52.584Z,14.65
2019-05-17T14:02:23.295Z,9.90
2019-05-17T14:04:54.092Z,8.63
2019-05-17T14:07:24.706Z,13.23
2019-05-17T14:09:55.374Z,13.83
2019-05-17T14:12:28.956Z,10.70
2019-05-17T14:14:59.574Z,9.00
2019-05-17T14:17:30.442Z,15.07
2019-05-17T14:20:01.306Z,12.67
2019-05-17T14:22:35.912Z,17.65
2019-05-17T14:25:06.833Z,11.03
2019-05-17T14:27:37.572Z,15.67
2019-05-17T14:30:10.034Z,12.13
2019-05-17T14:32:42.291Z,12.87
2019-05-17T14:35:13.172Z,11.77
2019-05-17T14:37:44.660Z,16.67
2019-05-17T14:40:16.735Z,9.78
2019-05-17T14:42:48.163Z,14.90
2019-05-17T14:45:19.067Z,15.58
2019-05-17T14:47:50.425Z,10.30
2019-05-17T14:50:20.921Z,10.77
2019-05-17T14:52:51.524Z,15.17
2019-05-17T14:55:22.289Z,10.63
2019-05-17T14:57:53.218Z,10.67
2019-05-17T15:00:23.970Z,19.53
2019-05-17T15:02:54.574Z,12.07
2019-05-17T15:05:25.493Z,14.73
2019-05-17T15:07:57.721Z,14.33
2019-05-17T15:10:28.347Z,16.93
2019-05-17T15:13:01.549Z,13.47
2019-05-17T15:15:31.417Z,11.30
2019-05-17T15:18:09.024Z,11.73
2019-05-17T15:20:37.829Z,13.77
2019-05-17T15:23:08.550Z,15.97
2019-05-17T15:25:39.188Z,17.90
2019-05-17T15:28:09.821Z,15.53
2019-05-17T15:30:40.596Z,15.07
2019-05-17T15:33:11.323Z,16.03
2019-05-17T15:35:42.855Z,17.07
2019-05-17T15:38:15.456Z,9.50
2019-05-17T15:40:45.847Z,10.93
2019-05-17T15:43:18.575Z,14.57
2019-05-17T15:45:49.268Z,10.53
2019-05-17T15:48:20.077Z,11.93
2019-05-17T15:50:50.681Z,13.20
2019-05-17T15:53:22.152Z,18.10
2019-05-17T15:55:52.778Z,16.47
2019-05-17T15:58:23.413Z,12.77
2019-05-17T16:00:56.677Z,13.03
2019-05-17T16:03:27.263Z,15.47
2019-05-17T16:05:57.935Z,13.30
2019-05-17T16:08:29.842Z,11.47
2019-05-17T16:11:00.690Z,13.93
2019-05-17T16:13:33.893Z,12.97
2019-05-17T16:16:04.373Z,12.30
2019-05-17T16:18:35.196Z,10.97
2019-05-17T16:21:05.971Z,13.77
2019-05-17T16:23:36.653Z,11.10
2019-05-17T16:26:08.323Z,14.07
2019-05-17T16:28:39.152Z,14.43
2019-05-17T16:31:11.739Z,13.17
2019-05-17T16:33:42.362Z,11.70
2019-05-17T16:36:13.035Z,11.33
2019-05-17T16:38:43.721Z,14.90
2019-05-17T16:41:16.509Z,13.83
2019-05-17T16:43:47.156Z,16.87
2019-05-17T16:46:17.877Z,14.83
2019-05-17T16:48:48.462Z,12.90
2019-05-17T16:51:19.123Z,11.03
2019-05-17T16:53:49.830Z,12.80
2019-05-17T16:56:20.609Z,9.33
2019-05-17T16:58:51.209Z,14.37
2019-05-17T17:01:21.948Z,10.20
2019-05-17T17:03:52.669Z,14.03
2019-05-17T17:06:23.280Z,11.73
2019-05-17T17:08:54.041Z,23.70
2019-05-17T17:11:24.726Z,13.37
2019-05-17T17:13:55.467Z,13.23
2019-05-17T17:16:26.087Z,11.17
2019-05-17T17:18:56.750Z,13.43
2019-05-17T17:21:27.483Z,13.27
2019-05-17T17:23:58.451Z,14.10
2019-05-17T17:26:29.063Z,13.07
2019-05-17T17:28:59.904Z,16.57
2019-05-17T17:31:31.071Z,13.63
2019-05-17T17:34:01.782Z,18.27
2019-05-17T17:36:32.401Z,10.07
2019-05-17T17:39:04.745Z,11.97
2019-05-17T17:41:35.422Z,11.00
2019-05-17T17:44:09.607Z,10.30
2019-05-17T17:46:40.278Z,11.60
2019-05-17T17:49:10.903Z,12.00
2019-05-17T17:51:41.569Z,11.10
2019-05-17T17:54:12.560Z,13.27
2019-05-17T17:56:43.470Z,10.00
2019-05-17T17:59:14.153Z,12.70
2019-05-17T18:01:44.910Z,11.47
2019-05-17T18:04:15.592Z,15.87
2019-05-17T18:06:46.228Z,12.07
2019-05-17T18:09:17.279Z,12.83
2019-05-17T18:11:47.989Z,10.77
2019-05-17T18:14:18.737Z,10.73
2019-05-17T18:16:49.348Z,12.77
2019-05-17T18:19:20.108Z,12.13
2019-05-17T18:21:50.927Z,12.03
2019-05-17T18:24:21.559Z,9.67
2019-05-17T18:26:52.337Z,13.90
2019-05-17T18:29:23.011Z,14.23
2019-05-17T18:31:54.060Z,18.23
2019-05-17T18:34:24.782Z,9.47
2019-05-17T18:36:55.379Z,12.40
2019-05-17T18:39:26.586Z,11.60
2019-05-17T18:41:57.187Z,12.20
2019-05-17T18:44:29.346Z,9.73
2019-05-17T18:47:00.113Z,9.10
2019-05-17T18:49:30.748Z,12.23
2019-05-17T18:52:02.456Z,14.33
2019-05-17T18:54:33.173Z,10.17
2019-05-17T18:57:03.917Z,13.87
2019-05-17T18:59:34.551Z,12.97
2019-05-17T19:02:05.227Z,11.37
2019-05-17T19:04:35.948Z,12.43
2019-05-17T19:07:06.787Z,13.07
2019-05-17T19:09:37.532Z,14.23
2019-05-17T19:12:08.275Z,12.83
2019-05-17T19:14:43.119Z,11.43
2019-05-17T19:17:11.386Z,13.53
2019-05-17T19:19:42.043Z,11.37
2019-05-17T19:22:12.790Z,12.97
2019-05-17T19:24:43.380Z,12.17
2019-05-17T19:27:14.132Z,10.30
2019-05-17T19:29:44.825Z,10.80
2019-05-17T19:32:15.454Z,13.10
2019-05-17T19:34:47.811Z,12.73
2019-05-17T19:37:19.060Z,15.13
2019-05-17T19:39:50.018Z,12.73
2019-05-17T19:42:23.167Z,14.70
2019-05-17T19:44:59.492Z,9.60
2019-05-17T19:47:29.131Z,19.60
2019-05-17T19:50:00.186Z,8.00
2019-05-17T19:52:31.356Z,9.93
2019-05-17T19:55:02.055Z,11.83
2019-05-17T19:57:32.736Z,12.53
2019-05-17T20:00:04.169Z,8.73
2019-05-17T20:02:34.789Z,11.53
2019-05-17T20:05:07.193Z,12.80
2019-05-17T20:07:39.414Z,9.53
2019-05-17T20:10:12.939Z,19.43
2019-05-17T20:12:43.787Z,10.83
2019-05-17T20:15:18.196Z,8.87
2019-05-17T20:17:48.974Z,10.70
2019-05-17T20:20:19.685Z,9.43
2019-05-17T20:22:51.826Z,9.00
2019-05-17T20:25:22.665Z,9.43
2019-05-17T20:27:53.601Z,11.03
2019-05-17T20:30:24.220Z,16.70
2019-05-17T20:32:58.034Z,13.67
2019-05-17T20:35:28.644Z,11.13
2019-05-17T20:37:59.318Z,11.27
2019-05-17T20:40:29.931Z,9.07
2019-05-17T20:43:00.561Z,8.40
2019-05-17T20:45:33.509Z,9.97
2019-05-17T20:48:03.983Z,11.70
2019-05-17T20:50:34.603Z,7.93
2019-05-17T20:53:18.000Z,9.50
2019-05-17T20:55:37.716Z,8.97
2019-05-17T20:58:08.352Z,10.27
2019-05-17T21:00:38.972Z,9.57
2019-05-17T21:03:13.638Z,14.10
2019-05-17T21:05:42.239Z,12.03
2019-05-17T21:08:12.965Z,9.50
2019-05-17T21:10:44.127Z,10.40
2019-05-17T21:13:14.816Z,12.27
2019-05-17T21:15:47.957Z,12.00
2019-05-17T21:18:18.326Z,10.33
2019-05-17T21:20:48.948Z,10.47
2019-05-17T21:23:19.636Z,7.70
2019-05-17T21:25:50.690Z,8.97
2019-05-17T21:28:21.827Z,10.33
2019-05-17T21:30:52.879Z,10.00
2019-05-17T21:33:23.686Z,9.27
2019-05-17T21:35:54.337Z,7.43
2019-05-17T21:38:25.982Z,10.30
2019-05-17T21:40:56.629Z,8.07
2019-05-17T21:43:27.314Z,9.07
2019-05-17T21:46:04.477Z,10.17
2019-05-17T21:48:35.156Z,11.20
2019-05-17T21:51:05.801Z,10.90
2019-05-17T21:53:36.534Z,8.57
2019-05-17T21:56:07.495Z,13.30
2019-05-17T21:58:38.614Z,9.23
2019-05-17T22:01:15.101Z,15.43
2019-05-17T22:03:45.789Z,12.83
2019-05-17T22:06:16.739Z,16.23
2019-05-17T22:08:48.072Z,9.67
2019-05-17T22:11:18.719Z,9.47
2019-05-17T22:13:49.300Z,8.77
2019-05-17T22:16:20.422Z,11.00
2019-05-17T22:18:51.188Z,8.30
2019-05-17T22:21:21.811Z,9.83
2019-05-17T22:23:53.039Z,10.57
2019-05-17T22:26:23.644Z,8.97
2019-05-17T22:28:54.791Z,8.83
2019-05-17T22:31:25.793Z,10.37
2019-05-17T22:33:56.915Z,10.27
2019-05-17T22:36:27.611Z,10.73
2019-05-17T22:38:58.748Z,8.27
2019-05-17T22:41:29.586Z,10.17
2019-05-17T22:44:04.563Z,10.57
2019-05-17T22:46:36.509Z,9.97
2019-05-17T22:49:07.416Z,11.20
2019-05-17T22:51:38.108Z,10.70
2019-05-17T22:54:08.749Z,10.33
2019-05-17T22:56:41.009Z,8.43
2019-05-17T22:59:11.614Z,9.20
2019-05-17T23:01:42.627Z,6.60
2019-05-17T23:04:14.689Z,7.90
2019-05-17T23:06:45.521Z,9.93
2019-05-17T23:09:16.323Z,9.20
2019-05-17T23:11:48.525Z,12.23
2019-05-17T23:14:19.980Z,8.87
2019-05-17T23:16:52.163Z,6.67
2019-05-17T23:19:23.039Z,8.23
2019-05-17T23:21:55.519Z,12.57
2019-05-17T23:24:26.762Z,10.27
2019-05-17T23:26:57.366Z,9.67
2019-05-17T23:29:28.018Z,8.23
2019-05-17T23:31:58.700Z,8.03
2019-05-17T23:34:30.818Z,9.13
2019-05-17T23:37:01.413Z,9.63
2019-05-17T23:39:32.041Z,10.10
2019-05-17T23:42:02.624Z,11.13
2019-05-17T23:44:33.789Z,16.00
2019-05-17T23:47:07.142Z,14.33
2019-05-17T23:49:38.511Z,9.10
2019-05-17T23:52:10.724Z,10.10
2019-05-17T23:54:41.412Z,11.33
2019-05-17T23:57:12.132Z,7.43
2019-05-17T23:59:43.246Z,13.27
